Time;durP1;ratioP1;P1;durP2;ratioP2;P2;SDS_P1;SDS_P2;PMS_P1;PMS_P2;Temp;Humidity;BMP_temperature;BMP_pressure;BME280_temperature;BME280_humidity;BME280_pressure;Samples;Min_cycle;Max_cycle;Signal;HPM_P1;HPM_P2
2023/06/23 00:01:33;;;;;;;;;;;;;;;;;;5013182;28;20475;-63
2023/06/23 00:03:59;;;;;;;;;;;;;;;;;;5013047;28;19929;-63
2023/06/23 00:06:25;;;;;;;;;;;;;;;;;;5026292;28;19932;-63
2023/06/23 00:08:51;;;;;;;;;;;;;;;;;;5031626;28;20008;-64
2023/06/23 00:11:19;;;;;;;;;;;;;;;;;;5000121;28;20011;-63
2023/06/23 00:13:45;;;;;;;;;;;;;;;;;;5032436;28;19928;-63
2023/06/23 00:16:10;;;;;;;;;;;;;;;;;;5013478;28;19921;-64
2023/06/23 00:18:36;;;;;;;;;;;;;;;;;;5017046;28;19925;-64
2023/06/23 00:21:03;;;;;;;;;;;;;;;;;;5032086;28;19944;-63
2023/06/23 00:23:32;;;;;;;;;;;;;;;;;;5034726;28;20452;-63
2023/06/23 00:25:58;;;;;;;;;;;;;;;;;;5035046;28;19932;-64
2023/06/23 00:28:24;;;;;;;;;;;;;;;;;;5034863;28;19921;-62
2023/06/23 00:30:50;;;;;;;;;;;;;;;;;;5034547;28;19921;-63
2023/06/23 00:33:17;;;;;;;;;;;;;;;;;;5015636;28;19996;-62
2023/06/23 00:35:43;;;;;;;;;;;;;;;;;;5034041;28;19928;-63
2023/06/23 00:38:08;;;;;;;;;;;;;;;;;;5010790;28;20298;-63
2023/06/23 00:40:34;;;;;;;;;;;;;;;;;;5034685;28;19929;-63
2023/06/23 00:43:00;;;;;;;;;;;;;;;;;;5034707;28;19928;-63
2023/06/23 00:45:26;;;;;;;;;;;;;;;;;;5034660;28;20343;-64
2023/06/23 00:47:52;;;;;;;;;;;;;;;;;;5033847;28;19928;-63
2023/06/23 00:50:18;;;;;;;;;;;;;;;;;;5033698;28;20292;-63
2023/06/23 00:52:49;;;;;;;;;;;;;;;;;;5028847;28;19976;-63
2023/06/23 00:55:15;;;;;;;;;;;;;;;;;;5022818;28;19971;-63
2023/06/23 00:57:41;;;;;;;;;;;;;;;;;;5030546;28;19921;-63
2023/06/23 01:00:27;;;;;;;;;;;;;;;;;;5029141;28;19921;-63
2023/06/23 01:02:53;;;;;;;;;;;;;;;;;;5025029;28;19921;-63
2023/06/23 01:05:19;;;;;;;;;;;;;;;;;;5033670;28;19925;-63
2023/06/23 01:07:45;;;;;;;;;;;;;;;;;;5033249;28;19932;-63
2023/06/23 01:10:11;;;;;;;;;;;;;;;;;;5024298;28;20330;-63
2023/06/23 01:12:37;;;;;;;;;;;;;;;;;;5011024;28;19921;-63
2023/06/23 01:15:04;;;;;;;;;;;;;;;;;;5013422;28;19971;-63
2023/06/23 01:17:29;;;;;;;;;;;;;;;;;;5022522;28;20004;-63
2023/06/23 01:19:55;;;;;;;;;;;;;;;;;;5029403;28;20525;-64
2023/06/23 01:22:21;;;;;;;;;;;;;;;;;;5005015;28;19936;-64
2023/06/23 01:24:47;;;;;;;;;;;;;;;;;;5031856;28;19940;-64
2023/06/23 01:27:13;;;;;;;;;;;;;;;;;;5032026;28;20000;-64
2023/06/23 01:29:39;;;;;;;;;;;;;;;;;;5031560;28;20360;-63
2023/06/23 01:32:05;;;;;;;;;;;;;;;;;;5032224;28;19921;-63
2023/06/23 01:34:31;;;;;;;;;;;;;;;;;;5030178;28;19951;-63
2023/06/23 01:36:57;;;;;;;;;;;;;;;;;;5030394;28;19929;-63
2023/06/23 01:39:22;;;;;;;;;;;;;;;;;;5032796;28;19921;-63
2023/06/23 01:41:48;;;;;;;;;;;;;;;;;;5022568;28;20523;-64
2023/06/23 01:44:14;;;;;;;;;;;;;;;;;;5030459;28;20270;-64
2023/06/23 01:46:40;;;;;;;;;;;;;;;;;;5030267;28;19967;-64
2023/06/23 01:49:07;;;;;;;;;;;;;;;;;;5030108;28;19944;-63
2023/06/23 01:51:33;;;;;;;;;;;;;;;;;;4991412;28;19929;-63
2023/06/23 01:53:59;;;;;;;;;;;;;;;;;;5005893;28;19928;-63
2023/06/23 01:56:25;;;;;;;;;;;;;;;;;;5011879;28;19921;-63
2023/06/23 01:58:51;;;;;;;;;;;;;;;;;;5030231;28;19931;-63
2023/06/23 02:01:17;;;;;;;;;;;;;;;;;;5030348;28;20252;-63
2023/06/23 02:03:42;;;;;;;;;;;;;;;;;;5031156;28;19967;-63
2023/06/23 02:06:08;;;;;;;;;;;;;;;;;;5031347;28;19921;-63
2023/06/23 02:08:34;;;;;;;;;;;;;;;;;;5029657;28;19921;-63
2023/06/23 02:11:00;;;;;;;;;;;;;;;;;;4993980;28;19929;-63
2023/06/23 02:13:26;;;;;;;;;;;;;;;;;;5029333;28;19921;-63
2023/06/23 02:15:52;;;;;;;;;;;;;;;;;;5027299;28;20083;-64
2023/06/23 02:18:18;;;;;;;;;;;;;;;;;;5031067;28;19925;-64
2023/06/23 02:20:44;;;;;;;;;;;;;;;;;;5032614;28;19928;-64
2023/06/23 02:23:10;;;;;;;;;;;;;;;;;;5032493;28;19932;-64
2023/06/23 02:25:35;;;;;;;;;;;;;;;;;;5030004;28;19929;-64
2023/06/23 02:28:02;;;;;;;;;;;;;;;;;;5020051;28;19971;-64
2023/06/23 02:30:27;;;;;;;;;;;;;;;;;;5017253;28;19964;-64
2023/06/23 02:32:54;;;;;;;;;;;;;;;;;;5030451;28;19971;-64
2023/06/23 02:35:20;;;;;;;;;;;;;;;;;;5026000;28;20080;-64
2023/06/23 02:37:46;;;;;;;;;;;;;;;;;;5027740;28;20023;-64
2023/06/23 02:40:16;;;;;;;;;;;;;;;;;;5030047;28;19960;-64
2023/06/23 02:42:42;;;;;;;;;;;;;;;;;;5029908;28;19929;-64
2023/06/23 02:45:07;;;;;;;;;;;;;;;;;;5028732;28;19935;-64
2023/06/23 02:47:33;;;;;;;;;;;;;;;;;;5008334;28;19921;-64
2023/06/23 02:50:00;;;;;;;;;;;;;;;;;;5025905;28;19944;-63
2023/06/23 02:52:25;;;;;;;;;;;;;;;;;;5012931;28;20310;-64
2023/06/23 02:54:51;;;;;;;;;;;;;;;;;;5029590;28;19929;-64
2023/06/23 02:57:17;;;;;;;;;;;;;;;;;;5011346;28;19932;-64
2023/06/23 02:59:44;;;;;;;;;;;;;;;;;;5029165;28;20019;-64
2023/06/23 03:02:09;;;;;;;;;;;;;;;;;;5029465;28;20290;-64
2023/06/23 03:04:39;;;;;;;;;;;;;;;;;;5026790;28;19932;-63
2023/06/23 03:07:05;;;;;;;;;;;;;;;;;;5013815;28;19966;-62
2023/06/23 03:09:31;;;;;;;;;;;;;;;;;;5029165;28;19925;-62
2023/06/23 03:11:57;;;;;;;;;;;;;;;;;;5029452;28;19928;-63
2023/06/23 03:14:23;;;;;;;;;;;;;;;;;;5029324;28;19921;-62
2023/06/23 03:16:49;;;;;;;;;;;;;;;;;;5030024;28;19971;-61
2023/06/23 03:19:14;;;;;;;;;;;;;;;;;;5011566;28;19925;-62
2023/06/23 03:21:40;;;;;;;;;;;;;;;;;;5011271;28;19925;-63
2023/06/23 03:24:06;;;;;;;;;;;;;;;;;;5022062;28;19928;-63
2023/06/23 03:26:36;;;;;;;;;;;;;;;;;;5030042;28;19921;-63
2023/06/23 03:29:03;;;;;;;;;;;;;;;;;;5028296;28;20413;-63
2023/06/23 03:31:29;;;;;;;;;;;;;;;;;;4994919;28;19921;-63
2023/06/23 03:33:54;;;;;;;;;;;;;;;;;;5029854;28;19925;-63
2023/06/23 03:36:20;;;;;;;;;;;;;;;;;;5026330;28;20286;-63
2023/06/23 03:38:46;;;;;;;;;;;;;;;;;;5026995;28;19928;-63
2023/06/23 03:41:13;;;;;;;;;;;;;;;;;;5029117;28;19933;-63
2023/06/23 03:43:39;;;;;;;;;;;;;;;;;;5029949;28;20283;-63
2023/06/23 03:46:05;;;;;;;;;;;;;;;;;;5033035;28;19928;-63
2023/06/23 03:48:30;;;;;;;;;;;;;;;;;;5029697;28;19940;-63
2023/06/23 03:50:56;;;;;;;;;;;;;;;;;;5034791;28;19948;-63
2023/06/23 03:53:22;;;;;;;;;;;;;;;;;;5035076;28;19925;-63
2023/06/23 03:55:48;;;;;;;;;;;;;;;;;;5031947;28;19921;-63
2023/06/23 03:58:14;;;;;;;;;;;;;;;;;;5032760;28;19921;-63
2023/06/23 04:00:40;;;;;;;;;;;;;;;;;;5033307;28;20412;-63
2023/06/23 04:03:06;;;;;;;;;;;;;;;;;;5035481;28;20331;-63
2023/06/23 04:05:32;;;;;;;;;;;;;;;;;;5033523;28;20035;-63
2023/06/23 04:07:58;;;;;;;;;;;;;;;;;;5016533;28;20703;-63
2023/06/23 04:10:24;;;;;;;;;;;;;;;;;;5013123;28;19965;-64
2023/06/23 04:12:50;;;;;;;;;;;;;;;;;;5025993;28;19925;-64
2023/06/23 04:15:16;;;;;;;;;;;;;;;;;;5032590;28;19947;-61
2023/06/23 04:17:42;;;;;;;;;;;;;;;;;;5006930;28;19931;-62
2023/06/23 04:20:08;;;;;;;;;;;;;;;;;;5034151;28;19929;-62
2023/06/23 04:22:34;;;;;;;;;;;;;;;;;;5032772;28;19925;-63
2023/06/23 04:25:00;;;;;;;;;;;;;;;;;;5033719;28;20295;-62
2023/06/23 04:27:25;;;;;;;;;;;;;;;;;;5015277;28;19968;-63
2023/06/23 04:29:51;;;;;;;;;;;;;;;;;;5014632;28;19924;-62
2023/06/23 04:32:17;;;;;;;;;;;;;;;;;;5015306;28;19971;-62
2023/06/23 04:34:43;;;;;;;;;;;;;;;;;;5033802;28;20044;-63
2023/06/23 04:37:10;;;;;;;;;;;;;;;;;;5033433;28;20048;-63
2023/06/23 04:39:36;;;;;;;;;;;;;;;;;;5006547;28;19921;-62
2023/06/23 04:42:02;;;;;;;;;;;;;;;;;;5014590;28;20363;-62
2023/06/23 04:44:28;;;;;;;;;;;;;;;;;;5031481;28;20404;-63
2023/06/23 04:46:54;;;;;;;;;;;;;;;;;;5028605;28;20331;-63
2023/06/23 04:49:20;;;;;;;;;;;;;;;;;;5030367;28;19925;-62
2023/06/23 04:51:46;;;;;;;;;;;;;;;;;;5030024;28;20009;-63
2023/06/23 04:54:12;;;;;;;;;;;;;;;;;;5029835;28;19929;-63
2023/06/23 04:56:38;;;;;;;;;;;;;;;;;;5029134;28;19925;-63
2023/06/23 04:59:04;;;;;;;;;;;;;;;;;;5031837;28;19965;-63
2023/06/23 05:01:30;;;;;;;;;;;;;;;;;;4990398;28;19937;-63
2023/06/23 05:03:56;;;;;;;;;;;;;;;;;;4995786;28;19952;-63
2023/06/23 05:06:22;;;;;;;;;;;;;;;;;;5029590;28;19921;-63
2023/06/23 05:08:48;;;;;;;;;;;;;;;;;;5014885;28;19971;-63
2023/06/23 05:11:14;;;;;;;;;;;;;;;;;;5032362;28;20410;-63
2023/06/23 05:13:40;;;;;;;;;;;;;;;;;;5033101;28;19925;-63
2023/06/23 05:16:10;;;;;;;;;;;;;;;;;;5031660;28;19928;-62
2023/06/23 05:18:36;;;;;;;;;;;;;;;;;;4996736;28;19929;-63
2023/06/23 05:21:02;;;;;;;;;;;;;;;;;;5032285;28;19938;-63
2023/06/23 05:23:28;;;;;;;;;;;;;;;;;;5015206;28;20004;-63
2023/06/23 05:25:56;;;;;;;;;;;;;;;;;;5009452;28;20559;-63
2023/06/23 05:28:24;;;;;;;;;;;;;;;;;;5012002;28;20407;-63
2023/06/23 05:30:50;;;;;;;;;;;;;;;;;;5014835;28;20379;-63
2023/06/23 05:33:16;;;;;;;;;;;;;;;;;;5028515;28;19929;-63
2023/06/23 05:35:42;;;;;;;;;;;;;;;;;;5035551;22;20378;-61
2023/06/23 05:38:08;;;;;;;;;;;;;;;;;;5071564;28;19963;-61
2023/06/23 05:40:34;;;;;;;;;;;;;;;;;;5054835;28;20321;-61
2023/06/23 05:42:59;;;;;;;;;;;;;;;;;;5052813;28;19920;-61
2023/06/23 05:45:25;;;;;;;;;;;;;;;;;;5072947;28;19921;-59
2023/06/23 05:47:51;;;;;;;;;;;;;;;;;;5073309;28;20389;-60
2023/06/23 05:50:17;;;;;;;;;;;;;;;;;;5073652;28;19924;-60
2023/06/23 05:52:43;;;;;;;;;;;;;;;;;;5067919;28;19978;-61
2023/06/23 05:55:09;;;;;;;;;;;;;;;;;;5055057;28;19921;-60
2023/06/23 05:57:35;;;;;;;;;;;;;;;;;;5053621;28;20003;-61
2023/06/23 06:00:01;;;;;;;;;;;;;;;;;;5047449;28;19925;-61
2023/06/23 06:02:27;;;;;;;;;;;;;;;;;;5017345;28;19928;-61
2023/06/23 06:04:52;;;;;;;;;;;;;;;;;;5057224;28;19921;-61
2023/06/23 06:07:18;;;;;;;;;;;;;;;;;;5052512;28;19928;-60
2023/06/23 06:09:44;;;;;;;;;;;;;;;;;;5059030;28;19927;-61
2023/06/23 06:12:10;;;;;;;;;;;;;;;;;;5064402;28;20277;-60
2023/06/23 06:14:36;;;;;;;;;;;;;;;;;;5059016;28;19924;-59
2023/06/23 06:17:02;;;;;;;;;;;;;;;;;;5047819;28;19925;-60
2023/06/23 06:19:28;;;;;;;;;;;;;;;;;;5052716;28;19931;-60
2023/06/23 06:21:54;;;;;;;;;;;;;;;;;;5068859;28;19965;-60
2023/06/23 06:24:19;;;;;;;;;;;;;;;;;;5066487;28;19943;-60
2023/06/23 06:26:46;;;;;;;;;;;;;;;;;;5064420;28;19963;-60
2023/06/23 06:29:12;;;;;;;;;;;;;;;;;;5046348;28;19930;-60
2023/06/23 06:31:37;;;;;;;;;;;;;;;;;;5065178;28;20422;-60
2023/06/23 06:34:03;;;;;;;;;;;;;;;;;;5049784;28;19920;-60
2023/06/23 06:36:29;;;;;;;;;;;;;;;;;;5067188;28;20070;-60
2023/06/23 06:38:55;;;;;;;;;;;;;;;;;;5068489;28;19993;-60
2023/06/23 06:41:21;;;;;;;;;;;;;;;;;;5070646;28;20348;-61
2023/06/23 06:43:47;;;;;;;;;;;;;;;;;;5066751;28;19927;-61
2023/06/23 06:46:13;;;;;;;;;;;;;;;;;;5070098;28;20533;-61
2023/06/23 06:48:39;;;;;;;;;;;;;;;;;;5067621;28;19936;-61
2023/06/23 06:51:05;;;;;;;;;;;;;;;;;;5061694;28;19925;-60
2023/06/23 06:53:31;;;;;;;;;;;;;;;;;;5052028;28;20401;-61
2023/06/23 06:55:57;;;;;;;;;;;;;;;;;;5052276;28;20393;-60
2023/06/23 06:58:23;;;;;;;;;;;;;;;;;;5067405;28;19932;-60
2023/06/23 07:00:49;;;;;;;;;;;;;;;;;;5067269;28;19925;-60
2023/06/23 07:03:15;;;;;;;;;;;;;;;;;;5070024;28;20313;-60
2023/06/23 07:05:41;;;;;;;;;;;;;;;;;;5068708;28;19971;-60
2023/06/23 07:08:07;;;;;;;;;;;;;;;;;;5066994;28;19925;-60
2023/06/23 07:10:33;;;;;;;;;;;;;;;;;;5036772;28;19930;-61
2023/06/23 07:12:59;;;;;;;;;;;;;;;;;;5070442;28;19927;-60
2023/06/23 07:15:25;;;;;;;;;;;;;;;;;;5062982;28;19931;-60
2023/06/23 07:17:51;;;;;;;;;;;;;;;;;;5023710;28;20285;-60
2023/06/23 07:20:16;;;;;;;;;;;;;;;;;;5052192;28;19920;-61
2023/06/23 07:22:43;;;;;;;;;;;;;;;;;;5071741;28;19920;-61
2023/06/23 07:25:09;;;;;;;;;;;;;;;;;;5071426;28;20435;-61
2023/06/23 07:27:37;;;;;;;;;;;;;;;;;;5071037;28;21289;-60
2023/06/23 07:30:03;;;;;;;;;;;;;;;;;;5035859;28;20003;-60
2023/06/23 07:32:29;;;;;;;;;;;;;;;;;;5069005;28;20413;-60
2023/06/23 07:34:54;;;;;;;;;;;;;;;;;;5067461;28;19927;-60
2023/06/23 07:37:20;;;;;;;;;;;;;;;;;;5066769;28;19932;-60
2023/06/23 07:39:46;;;;;;;;;;;;;;;;;;5051941;28;19924;-60
2023/06/23 07:42:12;;;;;;;;;;;;;;;;;;5069199;28;19934;-60
2023/06/23 07:44:38;;;;;;;;;;;;;;;;;;5068981;28;19921;-61
2023/06/23 07:47:04;;;;;;;;;;;;;;;;;;5051486;28;20336;-60
2023/06/23 07:49:30;;;;;;;;;;;;;;;;;;5052392;28;20003;-60
2023/06/23 07:52:00;;;;;;;;;;;;;;;;;;5043824;28;20014;-61
2023/06/23 07:54:26;;;;;;;;;;;;;;;;;;5049648;28;19924;-61
2023/06/23 07:56:52;;;;;;;;;;;;;;;;;;5070968;28;19921;-61
2023/06/23 07:59:18;;;;;;;;;;;;;;;;;;5068931;28;19921;-61
2023/06/23 08:01:44;;;;;;;;;;;;;;;;;;5062342;28;20496;-60
2023/06/23 08:04:10;;;;;;;;;;;;;;;;;;5049531;28;19981;-60
2023/06/23 08:06:36;;;;;;;;;;;;;;;;;;5067716;28;19921;-61
2023/06/23 08:09:02;;;;;;;;;;;;;;;;;;5070270;28;19927;-61
2023/06/23 08:11:27;;;;;;;;;;;;;;;;;;5030251;28;19925;-61
2023/06/23 08:13:54;;;;;;;;;;;;;;;;;;5068858;28;19924;-61
2023/06/23 08:16:21;;;;;;;;;;;;;;;;;;5067688;28;20015;-60
2023/06/23 08:18:47;;;;;;;;;;;;;;;;;;5062928;28;19935;-60
2023/06/23 08:21:12;;;;;;;;;;;;;;;;;;5057070;28;19929;-61
2023/06/23 08:23:40;;;;;;;;;;;;;;;;;;5065455;28;19921;-60
2023/06/23 08:26:06;;;;;;;;;;;;;;;;;;5064191;28;19924;-60
2023/06/23 08:28:31;;;;;;;;;;;;;;;;;;5052811;28;19920;-60
2023/06/23 08:30:57;;;;;;;;;;;;;;;;;;5072678;28;19920;-60
2023/06/23 08:33:23;;;;;;;;;;;;;;;;;;5071501;28;19977;-60
2023/06/23 08:35:49;;;;;;;;;;;;;;;;;;5053042;28;19928;-59
2023/06/23 08:38:16;;;;;;;;;;;;;;;;;;5054631;28;19928;-59
2023/06/23 08:40:42;;;;;;;;;;;;;;;;;;5070327;28;19929;-60
2023/06/23 08:43:08;;;;;;;;;;;;;;;;;;5070831;28;19932;-60
2023/06/23 08:45:33;;;;;;;;;;;;;;;;;;5052746;28;19920;-60
2023/06/23 08:47:59;;;;;;;;;;;;;;;;;;5073439;28;19928;-60
2023/06/23 08:50:25;;;;;;;;;;;;;;;;;;5068033;28;20550;-60
2023/06/23 08:52:51;;;;;;;;;;;;;;;;;;5051694;28;19970;-60
2023/06/23 08:55:17;;;;;;;;;;;;;;;;;;5072482;28;19921;-60
2023/06/23 08:57:43;;;;;;;;;;;;;;;;;;5046692;28;19930;-60
2023/06/23 09:00:09;;;;;;;;;;;;;;;;;;5033832;28;19930;-61
2023/06/23 09:02:35;;;;;;;;;;;;;;;;;;5071405;28;20016;-60
2023/06/23 09:05:01;;;;;;;;;;;;;;;;;;5071825;28;20409;-61
2023/06/23 09:07:28;;;;;;;;;;;;;;;;;;5072557;28;19927;-61
2023/06/23 09:09:54;;;;;;;;;;;;;;;;;;5071820;28;19920;-60
2023/06/23 09:12:20;;;;;;;;;;;;;;;;;;5070542;28;19920;-61
2023/06/23 09:14:46;;;;;;;;;;;;;;;;;;5041099;28;20019;-61
2023/06/23 09:17:12;;;;;;;;;;;;;;;;;;5068853;28;20053;-61
2023/06/23 09:19:38;;;;;;;;;;;;;;;;;;5048595;28;20348;-60
2023/06/23 09:22:04;;;;;;;;;;;;;;;;;;5046537;28;20708;-60
2023/06/23 09:24:30;;;;;;;;;;;;;;;;;;5069242;28;19924;-60
2023/06/23 09:26:56;;;;;;;;;;;;;;;;;;5041776;28;19925;-60
2023/06/23 09:29:22;;;;;;;;;;;;;;;;;;5069409;28;19920;-59
2023/06/23 09:31:48;;;;;;;;;;;;;;;;;;5072335;28;19924;-59
2023/06/23 09:34:14;;;;;;;;;;;;;;;;;;5071917;28;20301;-59
2023/06/23 09:36:40;;;;;;;;;;;;;;;;;;5071469;28;19957;-60
2023/06/23 09:39:06;;;;;;;;;;;;;;;;;;5049655;28;19939;-60
2023/06/23 09:41:32;;;;;;;;;;;;;;;;;;5069077;28;20027;-59
2023/06/23 09:43:59;;;;;;;;;;;;;;;;;;5069948;28;19965;-59
2023/06/23 09:46:25;;;;;;;;;;;;;;;;;;5070710;28;19924;-61
2023/06/23 09:48:50;;;;;;;;;;;;;;;;;;5073547;28;19951;-61
2023/06/23 09:51:19;;;;;;;;;;;;;;;;;;5072924;28;19921;-61
2023/06/23 09:53:45;;;;;;;;;;;;;;;;;;5071001;28;20013;-61
2023/06/23 09:56:11;;;;;;;;;;;;;;;;;;5052861;28;20003;-61
2023/06/23 09:58:37;;;;;;;;;;;;;;;;;;5058690;28;19969;-61
2023/06/23 10:01:04;;;;;;;;;;;;;;;;;;5034043;28;20037;-60
2023/06/23 10:03:30;;;;;;;;;;;;;;;;;;5052400;28;20405;-60
2023/06/23 10:05:56;;;;;;;;;;;;;;;;;;5073059;28;19921;-60
2023/06/23 10:08:22;;;;;;;;;;;;;;;;;;5053996;28;20544;-60
2023/06/23 10:10:48;;;;;;;;;;;;;;;;;;5071142;28;19928;-60
2023/06/23 10:13:14;;;;;;;;;;;;;;;;;;5069593;28;19935;-60
2023/06/23 10:15:40;;;;;;;;;;;;;;;;;;5047894;28;19928;-60
2023/06/23 10:18:06;;;;;;;;;;;;;;;;;;5053072;28;19921;-60
2023/06/23 10:20:32;;;;;;;;;;;;;;;;;;5067424;28;20051;-60
2023/06/23 10:22:58;;;;;;;;;;;;;;;;;;5069739;28;20015;-60
2023/06/23 10:25:24;;;;;;;;;;;;;;;;;;5071862;28;20481;-60
2023/06/23 10:27:50;;;;;;;;;;;;;;;;;;5072644;28;19920;-60
2023/06/23 10:30:16;;;;;;;;;;;;;;;;;;5069619;28;19924;-60
2023/06/23 10:32:42;;;;;;;;;;;;;;;;;;5051892;28;20007;-60
2023/06/23 10:35:08;;;;;;;;;;;;;;;;;;5070955;28;19920;-60
2023/06/23 10:37:34;;;;;;;;;;;;;;;;;;5069232;28;19932;-61
2023/06/23 10:40:00;;;;;;;;;;;;;;;;;;5064312;28;19970;-60
2023/06/23 10:42:26;;;;;;;;;;;;;;;;;;5068401;28;19924;-60
2023/06/23 10:44:52;;;;;;;;;;;;;;;;;;5068745;28;19999;-60
2023/06/23 10:47:17;;;;;;;;;;;;;;;;;;5064459;28;20616;-60
2023/06/23 10:49:43;;;;;;;;;;;;;;;;;;5066125;28;19924;-60
2023/06/23 10:52:10;;;;;;;;;;;;;;;;;;5041956;28;19920;-61
2023/06/23 10:54:36;;;;;;;;;;;;;;;;;;5064751;28;20007;-61
2023/06/23 10:57:01;;;;;;;;;;;;;;;;;;5065785;28;20007;-61
2023/06/23 10:59:27;;;;;;;;;;;;;;;;;;5068685;28;19930;-61
2023/06/23 11:01:53;;;;;;;;;;;;;;;;;;5065811;28;19933;-61
2023/06/23 11:04:19;;;;;;;;;;;;;;;;;;5061929;28;19920;-61
2023/06/23 11:06:45;;;;;;;;;;;;;;;;;;5054750;28;19977;-61
2023/06/23 11:09:11;;;;;;;;;;;;;;;;;;5049597;28;19928;-61
2023/06/23 11:11:37;;;;;;;;;;;;;;;;;;5052037;28;20451;-61
2023/06/23 11:14:03;;;;;;;;;;;;;;;;;;5055618;28;19990;-61
2023/06/23 11:16:29;;;;;;;;;;;;;;;;;;5051940;28;20573;-61
2023/06/23 11:18:57;;;;;;;;;;;;;;;;;;5069851;28;19920;-60
2023/06/23 11:21:23;;;;;;;;;;;;;;;;;;5045575;28;20408;-61
2023/06/23 11:23:49;;;;;;;;;;;;;;;;;;5066174;28;19920;-61
2023/06/23 11:26:14;;;;;;;;;;;;;;;;;;5071625;28;19928;-61
2023/06/23 11:28:40;;;;;;;;;;;;;;;;;;5066495;28;20369;-61
2023/06/23 11:31:07;;;;;;;;;;;;;;;;;;5060915;28;20012;-61
2023/06/23 11:33:33;;;;;;;;;;;;;;;;;;5066770;28;19921;-61
2023/06/23 11:35:59;;;;;;;;;;;;;;;;;;5041380;28;19960;-62
2023/06/23 11:38:25;;;;;;;;;;;;;;;;;;5063796;28;20354;-61
2023/06/23 11:40:51;;;;;;;;;;;;;;;;;;5067171;28;19929;-61
2023/06/23 11:43:18;;;;;;;;;;;;;;;;;;5051469;28;19978;-61
2023/06/23 11:45:44;;;;;;;;;;;;;;;;;;5051339;28;19920;-61
2023/06/23 11:48:10;;;;;;;;;;;;;;;;;;5049803;28;19921;-61
2023/06/23 11:50:36;;;;;;;;;;;;;;;;;;5061130;28;19920;-62
2023/06/23 11:53:02;;;;;;;;;;;;;;;;;;5048413;28;19959;-61
2023/06/23 11:55:28;;;;;;;;;;;;;;;;;;5039065;28;19970;-61
2023/06/23 11:57:54;;;;;;;;;;;;;;;;;;5069276;28;20259;-61
2023/06/23 12:00:19;;;;;;;;;;;;;;;;;;5064914;28;19931;-62
2023/06/23 12:02:45;;;;;;;;;;;;;;;;;;5046441;28;19969;-62
2023/06/23 12:05:11;;;;;;;;;;;;;;;;;;5051800;28;20493;-61
2023/06/23 12:07:37;;;;;;;;;;;;;;;;;;5073783;28;19921;-62
2023/06/23 12:10:03;;;;;;;;;;;;;;;;;;5075092;28;19925;-60
2023/06/23 12:12:29;;;;;;;;;;;;;;;;;;5074460;28;19971;-60
2023/06/23 12:14:55;;;;;;;;;;;;;;;;;;5052065;28;19964;-60
2023/06/23 12:17:21;;;;;;;;;;;;;;;;;;5072858;28;20363;-61
2023/06/23 12:19:48;;;;;;;;;;;;;;;;;;5057127;28;19921;-60
2023/06/23 12:22:14;;;;;;;;;;;;;;;;;;5073090;28;19928;-61
2023/06/23 12:24:39;;;;;;;;;;;;;;;;;;5069816;28;19920;-60
2023/06/23 12:27:05;;;;;;;;;;;;;;;;;;5074920;28;19982;-61
2023/06/23 12:29:33;;;;;;;;;;;;;;;;;;5067585;28;20018;-61
2023/06/23 12:31:59;;;;;;;;;;;;;;;;;;5070300;28;20640;-61
2023/06/23 12:34:26;;;;;;;;;;;;;;;;;;5053220;28;19931;-61
2023/06/23 12:36:52;;;;;;;;;;;;;;;;;;5053235;28;19960;-61
2023/06/23 12:39:18;;;;;;;;;;;;;;;;;;5070246;28;19956;-61
2023/06/23 12:41:44;;;;;;;;;;;;;;;;;;5050201;28;20286;-61
2023/06/23 12:44:10;;;;;;;;;;;;;;;;;;5055694;28;19920;-61
2023/06/23 12:46:36;;;;;;;;;;;;;;;;;;5071542;28;19924;-60
2023/06/23 12:49:03;;;;;;;;;;;;;;;;;;5066664;28;19981;-61
2023/06/23 12:51:29;;;;;;;;;;;;;;;;;;5069810;28;19920;-61
2023/06/23 12:53:55;;;;;;;;;;;;;;;;;;5049718;28;19931;-61
2023/06/23 12:56:21;;;;;;;;;;;;;;;;;;5056045;28;19924;-61
2023/06/23 12:58:46;;;;;;;;;;;;;;;;;;5071196;28;19952;-64
2023/06/23 13:01:12;;;;;;;;;;;;;;;;;;5074152;28;19928;-64
2023/06/23 13:03:38;;;;;;;;;;;;;;;;;;5069225;28;19924;-64
2023/06/23 13:06:05;;;;;;;;;;;;;;;;;;5049116;28;19928;-64
2023/06/23 13:08:31;;;;;;;;;;;;;;;;;;5069204;28;19994;-64
2023/06/23 13:10:57;;;;;;;;;;;;;;;;;;5065329;28;20951;-65
2023/06/23 13:13:23;;;;;;;;;;;;;;;;;;5062457;28;20003;-65
2023/06/23 13:15:49;;;;;;;;;;;;;;;;;;5055903;28;19942;-65
2023/06/23 13:18:15;;;;;;;;;;;;;;;;;;5073907;28;20051;-64
2023/06/23 13:20:40;;;;;;;;;;;;;;;;;;5070951;28;20146;-65
2023/06/23 13:23:06;;;;;;;;;;;;;;;;;;5065740;28;19928;-65
2023/06/23 13:25:32;;;;;;;;;;;;;;;;;;5073604;28;19943;-64
2023/06/23 13:27:58;;;;;;;;;;;;;;;;;;5076582;28;19920;-64
2023/06/23 13:30:24;;;;;;;;;;;;;;;;;;5078364;28;19920;-64
2023/06/23 13:32:50;;;;;;;;;;;;;;;;;;5068955;28;19920;-64
2023/06/23 13:35:16;;;;;;;;;;;;;;;;;;5073853;28;19921;-63
2023/06/23 13:37:42;;;;;;;;;;;;;;;;;;5071353;28;19932;-64
2023/06/23 13:40:10;;;;;;;;;;;;;;;;;;5072516;28;19924;-64
2023/06/23 13:42:36;;;;;;;;;;;;;;;;;;5070564;28;19932;-64
2023/06/23 13:45:02;;;;;;;;;;;;;;;;;;5068341;28;19928;-64
2023/06/23 13:47:28;;;;;;;;;;;;;;;;;;5068977;28;19935;-64
2023/06/23 13:49:53;;;;;;;;;;;;;;;;;;5073165;28;20447;-64
2023/06/23 13:52:19;;;;;;;;;;;;;;;;;;5070860;28;19970;-64
2023/06/23 13:54:45;;;;;;;;;;;;;;;;;;5069170;28;19921;-63
2023/06/23 13:57:11;;;;;;;;;;;;;;;;;;5069573;28;19969;-64
2023/06/23 13:59:37;;;;;;;;;;;;;;;;;;5054068;28;19920;-64
2023/06/23 14:02:03;;;;;;;;;;;;;;;;;;5071114;28;19960;-64
2023/06/23 14:04:29;;;;;;;;;;;;;;;;;;5072139;28;19967;-64
2023/06/23 14:06:55;;;;;;;;;;;;;;;;;;5069261;28;19921;-64
2023/06/23 14:09:21;;;;;;;;;;;;;;;;;;5069241;28;19981;-64
2023/06/23 14:11:47;;;;;;;;;;;;;;;;;;5070382;28;20009;-64
2023/06/23 14:14:12;;;;;;;;;;;;;;;;;;5069341;28;20393;-64
2023/06/23 14:16:38;;;;;;;;;;;;;;;;;;5066885;28;20329;-64
2023/06/23 14:19:04;;;;;;;;;;;;;;;;;;5070933;28;20011;-64
2023/06/23 14:21:30;;;;;;;;;;;;;;;;;;5068388;28;19928;-64
2023/06/23 14:23:56;;;;;;;;;;;;;;;;;;5070212;28;20369;-63
2023/06/23 14:26:22;;;;;;;;;;;;;;;;;;5052356;28;20346;-64
2023/06/23 14:28:49;;;;;;;;;;;;;;;;;;5069760;28;19971;-64
2023/06/23 14:31:15;;;;;;;;;;;;;;;;;;5069857;28;19939;-64
2023/06/23 14:33:41;;;;;;;;;;;;;;;;;;5071223;28;19925;-64
2023/06/23 14:36:07;;;;;;;;;;;;;;;;;;5070152;28;20589;-64
2023/06/23 14:38:32;;;;;;;;;;;;;;;;;;5053514;28;19924;-65
2023/06/23 14:40:58;;;;;;;;;;;;;;;;;;5071171;28;19970;-65
2023/06/23 14:43:24;;;;;;;;;;;;;;;;;;5047763;28;20517;-65
2023/06/23 14:45:50;;;;;;;;;;;;;;;;;;5069611;28;19920;-63
2023/06/23 14:48:16;;;;;;;;;;;;;;;;;;5071955;28;19924;-63
2023/06/23 14:50:42;;;;;;;;;;;;;;;;;;5069904;28;19936;-64
2023/06/23 14:53:08;;;;;;;;;;;;;;;;;;5070045;28;19920;-64
2023/06/23 14:55:35;;;;;;;;;;;;;;;;;;5055533;28;19931;-64
2023/06/23 14:58:01;;;;;;;;;;;;;;;;;;5052048;28;20715;-64
2023/06/23 15:00:27;;;;;;;;;;;;;;;;;;5068955;28;19924;-64
2023/06/23 15:02:53;;;;;;;;;;;;;;;;;;5028186;28;19931;-64
2023/06/23 15:05:19;;;;;;;;;;;;;;;;;;5068649;28;19971;-64
2023/06/23 15:07:45;;;;;;;;;;;;;;;;;;5067827;28;19920;-65
2023/06/23 15:10:11;;;;;;;;;;;;;;;;;;5053888;28;19928;-65
2023/06/23 15:12:37;;;;;;;;;;;;;;;;;;5070685;28;19967;-64
2023/06/23 15:15:02;;;;;;;;;;;;;;;;;;5063079;28;19920;-64
2023/06/23 15:17:28;;;;;;;;;;;;;;;;;;5054997;28;20265;-63
2023/06/23 15:19:54;;;;;;;;;;;;;;;;;;5069817;28;19920;-64
2023/06/23 15:22:20;;;;;;;;;;;;;;;;;;5051841;28;19978;-64
2023/06/23 15:24:46;;;;;;;;;;;;;;;;;;5070191;28;19924;-64
2023/06/23 15:27:12;;;;;;;;;;;;;;;;;;5068754;28;19925;-64
2023/06/23 15:29:38;;;;;;;;;;;;;;;;;;5064978;28;20043;-64
2023/06/23 15:32:04;;;;;;;;;;;;;;;;;;5063138;28;19924;-64
2023/06/23 15:34:31;;;;;;;;;;;;;;;;;;5062470;28;19986;-64
2023/06/23 15:36:57;;;;;;;;;;;;;;;;;;5066477;28;19932;-64
2023/06/23 15:39:25;;;;;;;;;;;;;;;;;;5063138;28;21646;-64
2023/06/23 15:41:53;;;;;;;;;;;;;;;;;;5064964;28;19932;-64
2023/06/23 15:44:19;;;;;;;;;;;;;;;;;;5070740;28;19924;-64
2023/06/23 15:46:45;;;;;;;;;;;;;;;;;;5068018;28;20386;-64
2023/06/23 15:49:11;;;;;;;;;;;;;;;;;;5052353;28;19921;-64
2023/06/23 15:51:38;;;;;;;;;;;;;;;;;;5058729;28;19936;-64
2023/06/23 15:54:04;;;;;;;;;;;;;;;;;;5057179;28;19920;-64
2023/06/23 15:56:30;;;;;;;;;;;;;;;;;;5046440;28;19927;-64
2023/06/23 15:58:56;;;;;;;;;;;;;;;;;;5063671;28;19924;-64
2023/06/23 16:01:22;;;;;;;;;;;;;;;;;;5064404;28;20579;-64
2023/06/23 16:03:47;;;;;;;;;;;;;;;;;;5064955;28;19920;-64
2023/06/23 16:06:13;;;;;;;;;;;;;;;;;;5069552;28;19942;-64
2023/06/23 16:08:39;;;;;;;;;;;;;;;;;;5065803;28;20377;-64
2023/06/23 16:11:05;;;;;;;;;;;;;;;;;;5069266;28;20009;-65
2023/06/23 16:13:31;;;;;;;;;;;;;;;;;;5067844;28;19929;-64
2023/06/23 16:15:57;;;;;;;;;;;;;;;;;;5066967;28;19927;-64
2023/06/23 16:18:23;;;;;;;;;;;;;;;;;;5068497;28;19925;-64
2023/06/23 16:20:49;;;;;;;;;;;;;;;;;;5062848;28;19936;-65
2023/06/23 16:23:15;;;;;;;;;;;;;;;;;;5046427;28;19968;-64
2023/06/23 16:25:41;;;;;;;;;;;;;;;;;;5065887;28;19921;-64
2023/06/23 16:28:07;;;;;;;;;;;;;;;;;;5070599;28;20415;-64
2023/06/23 16:30:32;;;;;;;;;;;;;;;;;;5051552;28;20007;-64
2023/06/23 16:32:58;;;;;;;;;;;;;;;;;;5068553;28;20481;-65
2023/06/23 16:35:24;;;;;;;;;;;;;;;;;;5068622;28;19927;-65
2023/06/23 16:37:50;;;;;;;;;;;;;;;;;;5068762;28;19935;-65